createdAt,value
2023-03-30T00:01:19.203Z,31.53
2023-03-30T00:03:47.511Z,31.69
2023-03-30T00:06:21.853Z,31.55
2023-03-30T00:08:49.770Z,31.62
2023-03-30T00:11:17.879Z,31.89
2023-03-30T00:13:45.326Z,31.81
2023-03-30T00:16:14.056Z,31.69
2023-03-30T00:18:41.123Z,31.92
2023-03-30T00:21:09.542Z,31.83
2023-03-30T00:23:36.650Z,31.97
2023-03-30T00:26:04.023Z,31.76
2023-03-30T00:28:32.401Z,31.81
2023-03-30T00:30:59.828Z,32.07
2023-03-30T00:33:41.305Z,32.00
2023-03-30T00:36:11.677Z,32.22
2023-03-30T00:38:38.513Z,32.06
2023-03-30T00:41:07.163Z,31.85
2023-03-30T00:43:35.578Z,32.05
2023-03-30T00:46:02.540Z,32.20
2023-03-30T00:48:34.407Z,32.10
2023-03-30T00:51:07.505Z,32.19
2023-03-30T00:53:37.600Z,32.10
2023-03-30T00:56:07.760Z,32.44
2023-03-30T00:58:37.304Z,32.30
2023-03-30T01:01:07.768Z,32.65
2023-03-30T01:03:37.958Z,32.38
2023-03-30T01:06:07.563Z,32.40
2023-03-30T01:08:36.556Z,32.50
2023-03-30T01:11:06.505Z,32.59
2023-03-30T01:13:37.173Z,32.54
2023-03-30T01:16:21.552Z,32.52
2023-03-30T01:18:56.086Z,32.73
2023-03-30T01:22:04.798Z,32.52
2023-03-30T01:25:15.900Z,32.58
2023-03-30T01:28:08.192Z,32.71
2023-03-30T01:30:54.366Z,32.75
2023-03-30T01:33:40.006Z,32.34
2023-03-30T01:36:34.230Z,32.67
2023-03-30T01:39:20.201Z,32.73
2023-03-30T01:41:56.282Z,32.75
2023-03-30T01:44:31.119Z,32.64
2023-03-30T01:47:06.461Z,32.58
2023-03-30T01:49:41.082Z,32.74
2023-03-30T01:52:15.116Z,32.65
2023-03-30T01:54:48.616Z,32.65
2023-03-30T01:57:19.982Z,32.64
2023-03-30T01:59:53.448Z,32.73
2023-03-30T02:02:28.407Z,32.48
2023-03-30T02:04:57.863Z,32.65
2023-03-30T02:07:29.946Z,32.73
2023-03-30T02:10:02.716Z,32.79
2023-03-30T02:12:31.134Z,32.89
2023-03-30T02:15:01.998Z,32.81
2023-03-30T02:17:30.541Z,32.83
2023-03-30T02:19:58.926Z,32.84
2023-03-30T02:22:29.532Z,32.66
2023-03-30T02:24:58.571Z,32.73
2023-03-30T02:27:27.137Z,32.98
2023-03-30T02:29:54.694Z,32.85
2023-03-30T02:32:24.824Z,32.79
2023-03-30T02:35:10.867Z,32.84
2023-03-30T02:37:59.009Z,32.83
2023-03-30T02:40:36.634Z,32.82
2023-03-30T02:43:22.978Z,32.90
2023-03-30T02:45:53.464Z,32.74
2023-03-30T02:48:33.817Z,32.82
2023-03-30T02:51:17.061Z,32.76
2023-03-30T02:54:13.107Z,32.78
2023-03-30T02:57:07.312Z,32.86
2023-03-30T02:59:37.865Z,32.86
2023-03-30T03:02:11.761Z,32.87
2023-03-30T03:04:43.574Z,32.94
2023-03-30T03:07:32.256Z,33.11
2023-03-30T03:09:59.920Z,32.87
2023-03-30T03:12:31.814Z,33.03
2023-03-30T03:14:58.775Z,32.82
2023-03-30T03:17:29.638Z,32.86
2023-03-30T03:19:56.568Z,32.89
2023-03-30T03:22:23.586Z,32.77
2023-03-30T03:24:51.294Z,32.89
2023-03-30T03:27:29.694Z,33.04
2023-03-30T03:30:08.196Z,33.00
2023-03-30T03:32:42.112Z,32.99
2023-03-30T03:35:09.587Z,33.01
2023-03-30T03:37:37.407Z,33.00
2023-03-30T03:40:10.225Z,33.02
2023-03-30T03:42:39.271Z,33.09
2023-03-30T03:45:10.739Z,32.83
2023-03-30T03:47:50.506Z,32.83
2023-03-30T03:50:21.077Z,32.94
2023-03-30T03:52:48.103Z,33.08
2023-03-30T03:55:15.217Z,32.91
2023-03-30T03:57:45.095Z,32.92
2023-03-30T04:00:18.839Z,33.04
2023-03-30T04:02:50.863Z,33.03
2023-03-30T04:05:18.481Z,33.06
2023-03-30T04:07:46.411Z,32.94
2023-03-30T04:10:14.080Z,33.05
2023-03-30T04:12:47.087Z,33.05
2023-03-30T04:15:28.252Z,33.16
2023-03-30T04:18:10.235Z,33.04
2023-03-30T04:21:07.536Z,33.17
2023-03-30T04:23:57.554Z,33.11
2023-03-30T04:26:48.841Z,33.13
2023-03-30T04:29:44.781Z,33.25
2023-03-30T04:32:38.938Z,33.06
2023-03-30T04:35:26.158Z,33.32
2023-03-30T04:38:02.492Z,33.45
2023-03-30T04:41:05.639Z,33.31
2023-03-30T04:44:01.065Z,33.35
2023-03-30T04:46:49.314Z,33.29
2023-03-30T04:49:43.412Z,33.24
2023-03-30T04:52:33.253Z,33.06
2023-03-30T04:55:20.327Z,33.24
2023-03-30T04:57:56.324Z,33.14
2023-03-30T05:00:53.960Z,33.15
2023-03-30T05:03:42.493Z,32.93
2023-03-30T05:06:27.510Z,32.93
2023-03-30T05:09:12.742Z,32.71
2023-03-30T05:11:55.572Z,32.64
2023-03-30T05:14:35.042Z,32.65
2023-03-30T05:17:20.428Z,32.60
2023-03-30T05:19:57.707Z,32.41
2023-03-30T05:22:34.174Z,32.40
2023-03-30T05:25:29.824Z,32.41
2023-03-30T05:28:06.239Z,32.38
2023-03-30T05:30:47.124Z,32.45
2023-03-30T05:33:32.419Z,32.03
2023-03-30T05:36:20.797Z,32.39
2023-03-30T05:39:05.293Z,32.04
2023-03-30T05:41:41.548Z,32.17
2023-03-30T05:44:22.628Z,32.21
2023-03-30T05:47:08.396Z,32.24
2023-03-30T05:50:04.747Z,32.38
2023-03-30T05:52:40.414Z,32.61
2023-03-30T05:55:19.812Z,32.36
2023-03-30T05:58:01.655Z,32.24
2023-03-30T06:00:36.920Z,32.63
2023-03-30T06:03:14.826Z,32.50
2023-03-30T06:05:43.733Z,32.56
2023-03-30T06:08:13.639Z,32.74
2023-03-30T06:10:42.172Z,32.74
2023-03-30T06:13:11.675Z,32.87
2023-03-30T06:15:48.315Z,32.74
2023-03-30T06:18:20.093Z,33.01
2023-03-30T06:21:08.482Z,33.25
2023-03-30T06:23:53.247Z,33.08
2023-03-30T06:26:23.642Z,32.73
2023-03-30T06:28:50.979Z,33.03
2023-03-30T06:31:17.884Z,33.06
2023-03-30T06:33:47.861Z,33.23
2023-03-30T06:36:14.772Z,33.47
2023-03-30T06:38:43.715Z,33.50
2023-03-30T06:41:12.837Z,33.35
2023-03-30T06:43:43.357Z,33.47
2023-03-30T06:46:19.950Z,33.33
2023-03-30T06:48:48.972Z,33.48
2023-03-30T06:51:44.851Z,33.40
2023-03-30T06:54:12.320Z,33.44
2023-03-30T06:56:47.862Z,33.62
2023-03-30T06:59:16.882Z,33.49
2023-03-30T07:02:03.604Z,33.48
2023-03-30T07:04:56.429Z,33.64
2023-03-30T07:07:37.279Z,33.73
2023-03-30T07:10:10.199Z,33.90
2023-03-30T07:12:39.201Z,33.74
2023-03-30T07:15:08.823Z,33.90
2023-03-30T07:17:37.404Z,34.06
2023-03-30T07:20:07.890Z,34.19
2023-03-30T07:22:43.603Z,34.10
2023-03-30T07:25:10.983Z,34.04
2023-03-30T07:27:39.179Z,34.42
2023-03-30T07:30:20.553Z,34.14
2023-03-30T07:32:51.043Z,34.21
2023-03-30T07:35:18.538Z,34.20
2023-03-30T07:37:50.301Z,34.26
2023-03-30T07:40:18.706Z,34.20
2023-03-30T07:42:48.063Z,34.58
2023-03-30T07:45:16.588Z,34.43
2023-03-30T07:47:45.091Z,34.52
2023-03-30T07:50:12.651Z,34.46
2023-03-30T07:52:39.592Z,34.47
2023-03-30T07:55:07.825Z,34.45
2023-03-30T07:57:52.537Z,34.56
2023-03-30T08:00:22.021Z,34.55
2023-03-30T08:03:25.599Z,34.60
2023-03-30T08:05:55.037Z,34.41
2023-03-30T08:08:23.522Z,34.47
2023-03-30T08:10:50.940Z,34.40
2023-03-30T08:13:21.347Z,34.59
2023-03-30T08:15:49.011Z,34.70
2023-03-30T08:18:16.216Z,34.59
2023-03-30T08:20:43.879Z,34.62
2023-03-30T08:23:12.228Z,34.76
2023-03-30T08:25:39.098Z,34.61
2023-03-30T08:28:06.129Z,34.73
2023-03-30T08:30:34.414Z,34.54
2023-03-30T08:33:01.343Z,34.58
2023-03-30T08:35:28.253Z,34.60
2023-03-30T08:37:55.567Z,34.59
2023-03-30T08:40:23.300Z,34.59
2023-03-30T08:43:06.843Z,34.56
2023-03-30T08:45:37.434Z,34.81
2023-03-30T08:48:08.014Z,34.70
2023-03-30T08:50:36.332Z,34.85
2023-03-30T08:53:06.416Z,34.44
2023-03-30T08:55:38.824Z,34.61
2023-03-30T08:58:13.707Z,34.79
2023-03-30T09:00:46.961Z,34.82
2023-03-30T09:03:19.190Z,34.57
2023-03-30T09:05:52.676Z,34.76
2023-03-30T09:08:22.997Z,34.86
2023-03-30T09:10:54.269Z,34.56
2023-03-30T09:13:24.756Z,34.70
2023-03-30T09:15:57.414Z,34.59
2023-03-30T09:18:30.413Z,34.75
2023-03-30T09:20:59.968Z,34.70
2023-03-30T09:23:29.801Z,34.58
2023-03-30T09:26:07.305Z,34.77
2023-03-30T09:28:43.323Z,34.81
2023-03-30T09:31:20.495Z,34.88
2023-03-30T09:33:57.383Z,34.46
2023-03-30T09:36:31.354Z,34.88
2023-03-30T09:38:58.551Z,34.82
2023-03-30T09:41:41.312Z,34.79
2023-03-30T09:44:19.069Z,34.88
2023-03-30T09:46:49.973Z,34.84
2023-03-30T09:49:17.280Z,35.09
2023-03-30T09:51:55.193Z,34.81
2023-03-30T09:54:23.387Z,35.03
2023-03-30T09:56:54.704Z,35.22
2023-03-30T09:59:27.560Z,35.11
2023-03-30T10:02:10.729Z,35.35
2023-03-30T10:05:00.380Z,35.08
2023-03-30T10:07:29.524Z,35.27
2023-03-30T10:09:59.185Z,35.71
2023-03-30T10:12:27.610Z,35.33
2023-03-30T10:14:55.893Z,35.40
2023-03-30T10:17:25.743Z,35.46
2023-03-30T10:20:00.327Z,35.39
2023-03-30T10:22:37.546Z,35.34
2023-03-30T10:25:10.132Z,35.50
2023-03-30T10:27:40.735Z,35.49
2023-03-30T10:30:18.257Z,35.53
2023-03-30T10:32:47.241Z,35.30
2023-03-30T10:35:19.270Z,35.34
2023-03-30T10:37:48.159Z,35.38
2023-03-30T10:40:18.940Z,35.20
2023-03-30T10:42:47.851Z,35.03
2023-03-30T10:45:19.436Z,35.33
2023-03-30T10:48:04.226Z,35.22
2023-03-30T10:50:41.102Z,35.18
2023-03-30T10:53:22.457Z,35.15
2023-03-30T10:55:57.063Z,35.17
2023-03-30T10:58:41.581Z,35.19
2023-03-30T11:01:16.515Z,35.17
2023-03-30T11:03:50.106Z,35.26
2023-03-30T11:06:22.898Z,35.22
2023-03-30T11:08:52.759Z,35.33
2023-03-30T11:11:22.683Z,35.14
2023-03-30T11:13:53.461Z,35.24
2023-03-30T11:16:25.539Z,35.00
2023-03-30T11:18:57.101Z,35.12
2023-03-30T11:21:31.497Z,34.89
2023-03-30T11:24:04.242Z,34.74
2023-03-30T11:26:37.433Z,34.71
2023-03-30T11:29:18.999Z,34.86
2023-03-30T11:31:54.280Z,34.69
2023-03-30T11:34:30.231Z,34.64
2023-03-30T11:37:03.718Z,34.60
2023-03-30T11:39:33.401Z,34.40
2023-03-30T11:42:10.307Z,34.52
2023-03-30T11:44:37.297Z,34.51
2023-03-30T11:47:22.669Z,34.54
2023-03-30T11:50:04.826Z,34.49
2023-03-30T11:52:38.596Z,34.59
2023-03-30T11:55:23.910Z,34.51
2023-03-30T11:58:04.939Z,34.53
2023-03-30T12:00:48.608Z,34.52
2023-03-30T12:03:29.091Z,34.46
2023-03-30T12:06:12.161Z,34.64
2023-03-30T12:08:55.027Z,34.39
2023-03-30T12:11:33.239Z,34.43
2023-03-30T12:14:00.910Z,34.43
2023-03-30T12:16:33.559Z,34.40
2023-03-30T12:19:10.654Z,34.26
2023-03-30T12:21:43.981Z,34.34
2023-03-30T12:24:16.794Z,34.13
2023-03-30T12:26:51.845Z,34.09
2023-03-30T12:30:01.851Z,34.01
2023-03-30T12:32:31.018Z,34.03
2023-03-30T12:34:58.839Z,34.04
2023-03-30T12:37:33.570Z,33.99
2023-03-30T12:40:14.319Z,33.82
2023-03-30T12:42:54.127Z,34.05
2023-03-30T12:45:28.774Z,34.02
2023-03-30T12:48:18.639Z,34.03
2023-03-30T12:50:57.429Z,34.02
2023-03-30T12:53:46.393Z,34.02
2023-03-30T12:56:23.003Z,34.03
2023-03-30T12:59:17.291Z,34.06
2023-03-30T13:01:59.447Z,34.05
2023-03-30T13:04:28.841Z,34.12
2023-03-30T13:06:58.022Z,34.08
2023-03-30T13:09:35.660Z,33.88
2023-03-30T13:12:33.605Z,34.05
2023-03-30T13:15:06.921Z,34.15
2023-03-30T13:17:57.931Z,33.95
2023-03-30T13:20:30.720Z,34.04
2023-03-30T13:23:23.630Z,34.13
2023-03-30T13:26:03.478Z,34.17
2023-03-30T13:28:55.900Z,34.07
2023-03-30T13:31:44.150Z,34.16
2023-03-30T13:34:24.043Z,33.91
2023-03-30T13:37:00.402Z,34.10
2023-03-30T13:39:31.471Z,34.10
2023-03-30T13:42:14.074Z,34.07
2023-03-30T13:44:57.343Z,34.03
2023-03-30T13:47:50.063Z,34.29
2023-03-30T13:50:25.604Z,34.20
2023-03-30T13:52:57.537Z,33.93
2023-03-30T13:55:31.266Z,34.07
2023-03-30T13:58:04.960Z,34.02
2023-03-30T14:00:40.247Z,34.03
2023-03-30T14:03:38.103Z,34.00
2023-03-30T14:06:08.691Z,34.00
2023-03-30T14:08:37.956Z,33.98
2023-03-30T14:11:12.118Z,33.96
2023-03-30T14:13:40.741Z,33.94
2023-03-30T14:16:09.377Z,34.21
2023-03-30T14:18:36.513Z,34.21
2023-03-30T14:21:09.261Z,34.32
2023-03-30T14:23:39.502Z,34.08
2023-03-30T14:26:13.606Z,34.22
2023-03-30T14:28:42.717Z,34.34
2023-03-30T14:31:15.507Z,34.30
2023-03-30T14:33:42.438Z,34.30
2023-03-30T14:36:12.633Z,34.26
2023-03-30T14:38:41.460Z,34.20
2023-03-30T14:41:11.160Z,34.35
2023-03-30T14:43:41.462Z,34.14
2023-03-30T14:46:12.377Z,34.43
2023-03-30T14:48:41.936Z,34.11
2023-03-30T14:51:23.643Z,34.33
2023-03-30T14:53:51.630Z,34.14
2023-03-30T14:56:19.484Z,34.07
2023-03-30T14:58:49.299Z,34.22
2023-03-30T15:01:21.062Z,34.21
2023-03-30T15:03:48.654Z,34.20
2023-03-30T15:06:22.106Z,33.94
2023-03-30T15:08:50.983Z,34.05
2023-03-30T15:11:21.541Z,34.17
2023-03-30T15:13:52.803Z,33.94
2023-03-30T15:16:23.574Z,33.84
2023-03-30T15:18:52.639Z,33.84
2023-03-30T15:21:20.782Z,33.77
2023-03-30T15:23:49.467Z,33.57
2023-03-30T15:26:17.608Z,33.57
2023-03-30T15:28:48.220Z,33.49
2023-03-30T15:31:18.865Z,33.49
2023-03-30T15:33:49.089Z,33.44
2023-03-30T15:36:19.469Z,33.38
2023-03-30T15:38:49.525Z,33.57
2023-03-30T15:41:17.893Z,33.32
2023-03-30T15:43:58.458Z,33.46
2023-03-30T15:46:28.257Z,33.12
2023-03-30T15:48:57.695Z,33.46
2023-03-30T15:51:28.798Z,33.29
2023-03-30T15:53:59.356Z,33.21
2023-03-30T15:56:33.343Z,33.52
2023-03-30T15:59:01.565Z,33.15
2023-03-30T16:01:47.800Z,33.19
2023-03-30T16:04:17.044Z,33.09
2023-03-30T16:06:46.660Z,33.32
2023-03-30T16:09:14.661Z,33.51
2023-03-30T16:11:42.201Z,34.18
2023-03-30T16:14:14.359Z,34.67
2023-03-30T16:16:43.310Z,35.96
2023-03-30T16:19:11.326Z,35.50
2023-03-30T16:21:38.168Z,35.10
2023-03-30T16:24:06.067Z,34.77
2023-03-30T16:26:33.234Z,34.15
2023-03-30T16:29:00.144Z,34.07
2023-03-30T16:31:27.263Z,33.90
2023-03-30T16:33:55.725Z,33.61
2023-03-30T16:36:24.746Z,33.36
2023-03-30T16:38:51.653Z,33.77
2023-03-30T16:41:20.072Z,33.39
2023-03-30T16:43:47.334Z,33.57
2023-03-30T16:46:15.606Z,33.74
2023-03-30T16:48:42.912Z,33.37
2023-03-30T16:51:11.617Z,33.42
2023-03-30T16:53:38.568Z,33.53
2023-03-30T16:56:05.918Z,33.17
2023-03-30T16:58:33.135Z,33.27
2023-03-30T17:01:04.423Z,33.03
2023-03-30T17:03:32.013Z,33.07
2023-03-30T17:05:58.904Z,33.65
2023-03-30T17:08:28.576Z,33.11
2023-03-30T17:10:57.305Z,33.42
2023-03-30T17:13:24.115Z,32.96
2023-03-30T17:15:51.368Z,32.94
2023-03-30T17:18:20.465Z,32.92
2023-03-30T17:20:48.574Z,33.02
2023-03-30T17:23:16.913Z,33.07
2023-03-30T17:25:47.507Z,32.81
2023-03-30T17:28:21.216Z,33.18
2023-03-30T17:30:48.782Z,32.80
2023-03-30T17:33:15.781Z,32.91
2023-03-30T17:35:46.516Z,32.71
2023-03-30T17:38:14.264Z,32.70
2023-03-30T17:40:42.038Z,32.68
2023-03-30T17:43:11.271Z,32.96
2023-03-30T17:45:39.361Z,32.93
2023-03-30T17:48:11.816Z,32.99
2023-03-30T17:50:43.529Z,32.71
2023-03-30T17:53:14.829Z,32.46
2023-03-30T17:55:41.558Z,32.69
2023-03-30T17:58:16.636Z,32.99
2023-03-30T18:00:43.957Z,33.31
2023-03-30T18:03:10.838Z,33.01
2023-03-30T18:05:37.784Z,33.41
2023-03-30T18:08:05.215Z,32.87
2023-03-30T18:10:36.163Z,32.75
2023-03-30T18:13:03.856Z,32.82
2023-03-30T18:15:33.097Z,32.62
2023-03-30T18:18:00.979Z,32.93
2023-03-30T18:20:31.620Z,32.82
2023-03-30T18:22:58.605Z,32.80
2023-03-30T18:25:32.602Z,32.73
2023-03-30T18:27:59.989Z,32.97
2023-03-30T18:30:30.522Z,33.12
2023-03-30T18:32:59.585Z,33.06
2023-03-30T18:35:28.800Z,33.06
2023-03-30T18:37:56.669Z,33.10
2023-03-30T18:40:26.898Z,32.97
2023-03-30T18:42:54.274Z,32.81
2023-03-30T18:45:24.111Z,33.04
2023-03-30T18:47:51.200Z,32.78
2023-03-30T18:50:22.692Z,32.77
2023-03-30T18:52:50.167Z,32.77
2023-03-30T18:55:17.476Z,32.79
2023-03-30T18:57:44.620Z,32.53
2023-03-30T19:00:21.514Z,32.62
2023-03-30T19:02:49.898Z,32.73
2023-03-30T19:05:18.858Z,32.89
2023-03-30T19:07:48.270Z,32.81
2023-03-30T19:10:17.626Z,32.72
2023-03-30T19:12:44.606Z,32.80
2023-03-30T19:15:18.624Z,32.52
2023-03-30T19:17:45.993Z,32.64
2023-03-30T19:20:14.193Z,32.92
2023-03-30T19:22:41.503Z,32.68
2023-03-30T19:25:11.533Z,32.57
2023-03-30T19:27:40.919Z,32.70
2023-03-30T19:30:16.186Z,32.48
2023-03-30T19:32:44.744Z,32.70
2023-03-30T19:35:12.359Z,32.96
2023-03-30T19:37:43.271Z,32.89
2023-03-30T19:40:14.099Z,33.04
2023-03-30T19:42:40.956Z,33.08
2023-03-30T19:45:08.114Z,32.79
2023-03-30T19:47:38.889Z,32.98
2023-03-30T19:50:10.409Z,32.84
2023-03-30T19:52:39.772Z,32.85
2023-03-30T19:55:08.719Z,32.82
2023-03-30T19:57:37.757Z,33.31
2023-03-30T20:00:12.609Z,32.87
2023-03-30T20:02:39.759Z,33.07
2023-03-30T20:05:10.086Z,32.92
2023-03-30T20:07:37.404Z,32.96
2023-03-30T20:10:05.590Z,33.05
2023-03-30T20:12:32.764Z,33.30
2023-03-30T20:15:01.310Z,33.16
2023-03-30T20:17:30.167Z,32.93
2023-03-30T20:19:58.214Z,33.28
2023-03-30T20:22:25.618Z,33.00
2023-03-30T20:24:52.421Z,33.35
2023-03-30T20:27:19.277Z,32.82
2023-03-30T20:29:46.093Z,33.11
2023-03-30T20:32:16.554Z,33.14
2023-03-30T20:34:46.205Z,33.06
2023-03-30T20:37:13.123Z,33.40
2023-03-30T20:39:41.667Z,33.25
2023-03-30T20:42:09.420Z,33.45
2023-03-30T20:44:39.482Z,33.43
2023-03-30T20:47:08.874Z,33.29
2023-03-30T20:49:41.852Z,33.35
2023-03-30T20:52:08.887Z,33.27
2023-03-30T20:54:36.477Z,33.04
2023-03-30T20:57:03.546Z,32.98
2023-03-30T20:59:30.538Z,33.00
2023-03-30T21:01:59.218Z,33.08
2023-03-30T21:04:27.377Z,33.02
2023-03-30T21:06:55.944Z,33.10
2023-03-30T21:09:22.724Z,33.04
2023-03-30T21:11:49.568Z,33.14
2023-03-30T21:14:16.390Z,33.08
2023-03-30T21:16:43.750Z,33.00
2023-03-30T21:19:11.307Z,33.17
2023-03-30T21:21:38.867Z,33.11
2023-03-30T21:24:10.129Z,33.48
2023-03-30T21:26:37.958Z,33.55
2023-03-30T21:29:04.891Z,33.53
2023-03-30T21:31:32.000Z,33.44
2023-03-30T21:33:58.866Z,33.52
2023-03-30T21:36:25.841Z,33.42
2023-03-30T21:38:52.712Z,33.54
2023-03-30T21:41:24.378Z,33.43
2023-03-30T21:43:51.786Z,33.43
2023-03-30T21:46:21.920Z,33.08
2023-03-30T21:48:53.084Z,33.28
2023-03-30T21:51:23.447Z,33.42
2023-03-30T21:53:52.595Z,32.66
2023-03-30T21:56:22.459Z,33.25
2023-03-30T21:58:49.867Z,33.35
2023-03-30T22:01:17.417Z,33.16
2023-03-30T22:03:47.547Z,33.46
2023-03-30T22:06:16.300Z,33.30
2023-03-30T22:08:45.116Z,33.00
2023-03-30T22:11:14.426Z,33.38
2023-03-30T22:13:42.753Z,32.98
2023-03-30T22:16:16.338Z,32.99
2023-03-30T22:18:44.199Z,32.93
2023-03-30T22:21:13.998Z,32.84
2023-03-30T22:23:40.888Z,32.69
2023-03-30T22:26:08.258Z,32.85
2023-03-30T22:28:35.778Z,32.80
2023-03-30T22:31:06.558Z,33.03
2023-03-30T22:33:33.769Z,33.18
2023-03-30T22:36:03.107Z,32.79
2023-03-30T22:38:31.234Z,32.65
2023-03-30T22:41:04.587Z,33.10
2023-03-30T22:43:33.498Z,32.48
2023-03-30T22:46:00.461Z,32.77
2023-03-30T22:48:28.727Z,32.75
2023-03-30T22:50:58.108Z,32.32
2023-03-30T22:53:25.115Z,32.86
2023-03-30T22:55:51.983Z,32.50
2023-03-30T22:58:18.838Z,32.78
2023-03-30T23:00:46.200Z,32.55
2023-03-30T23:03:13.060Z,32.60
2023-03-30T23:05:41.438Z,32.39
2023-03-30T23:08:09.530Z,32.69
2023-03-30T23:10:37.560Z,32.62
2023-03-30T23:13:04.815Z,32.27
2023-03-30T23:15:32.263Z,32.49
2023-03-30T23:17:59.710Z,32.36
2023-03-30T23:20:26.760Z,32.45
2023-03-30T23:22:54.940Z,32.44
2023-03-30T23:25:22.230Z,32.44
2023-03-30T23:27:49.055Z,32.51
2023-03-30T23:30:15.987Z,32.70
2023-03-30T23:32:42.862Z,32.50
2023-03-30T23:35:09.947Z,32.57
2023-03-30T23:37:36.981Z,32.56
2023-03-30T23:40:07.718Z,32.64
2023-03-30T23:42:34.685Z,32.59
2023-03-30T23:45:01.571Z,32.58
2023-03-30T23:47:28.586Z,32.72
2023-03-30T23:49:55.464Z,32.94
2023-03-30T23:52:22.301Z,32.68
2023-03-30T23:54:52.300Z,32.89
2023-03-30T23:57:20.694Z,32.63
2023-03-30T23:59:47.495Z,32.68
